Time;durP1;ratioP1;P1;durP2;ratioP2;P2;SDS_P1;SDS_P2;PMS_P1;PMS_P2;Temp;Humidity;BMP_temperature;BMP_pressure;BME280_temperature;BME280_humidity;BME280_pressure;Samples;Min_cycle;Max_cycle;Signal;HPM_P1;HPM_P2
2021/07/26 00:00:59;;;;;;;12.82;4.78;;;;;;;18.39;58.47;93854.19;5091825;28;20131;-61
2021/07/26 00:03:25;;;;;;;5.28;4.47;;;;;;;18.30;58.85;93858.47;5092226;28;20028;-64
2021/07/26 00:05:57;;;;;;;6.07;5.05;;;;;;;18.23;58.20;93850.25;5091970;28;20486;-63
2021/07/26 00:08:23;;;;;;;5.82;3.90;;;;;;;18.09;59.79;93847.91;5091837;28;20032;-61
2021/07/26 00:11:00;;;;;;;7.13;4.40;;;;;;;17.97;59.54;93844.25;5091820;28;20059;-65
2021/07/26 00:13:26;;;;;;;4.22;3.83;;;;;;;17.87;60.02;93825.97;5091700;28;20032;-61
2021/07/26 00:15:51;;;;;;;6.40;4.20;;;;;;;17.95;60.77;93841.28;5091712;28;20035;-62
2021/07/26 00:18:17;;;;;;;6.57;4.05;;;;;;;17.85;60.75;93837.75;5091609;28;20024;-59
2021/07/26 00:20:42;;;;;;;6.60;3.78;;;;;;;17.78;61.08;93844.22;5086089;28;20020;-60
2021/07/26 00:23:07;;;;;;;5.03;4.15;;;;;;;17.69;61.88;93836.59;5071297;28;20028;-61
2021/07/26 00:25:33;;;;;;;10.93;4.20;;;;;;;17.70;62.24;93835.25;5071215;28;20027;-63
2021/07/26 00:27:58;;;;;;;6.72;3.78;;;;;;;17.66;61.87;93826.56;5071401;28;20039;-60
2021/07/26 00:30:24;;;;;;;6.70;3.88;;;;;;;17.58;62.52;93817.59;5087633;28;20111;-64
2021/07/26 00:32:49;;;;;;;5.35;4.28;;;;;;;17.60;62.54;93814.22;5091284;28;20077;-64
2021/07/26 00:35:14;;;;;;;5.70;3.80;;;;;;;17.51;62.36;93800.97;5091326;28;20035;-65
2021/07/26 00:37:40;;;;;;;5.63;3.75;;;;;;;17.52;62.62;93805.97;5091280;28;20032;-64
2021/07/26 00:40:09;;;;;;;10.73;4.10;;;;;;;17.52;62.29;93805.97;5093515;28;20015;-64
2021/07/26 00:42:37;;;;;;;12.27;4.85;;;;;;;17.41;62.32;93779.34;5111914;28;20019;-63
2021/07/26 00:45:04;;;;;;;6.28;3.58;;;;;;;17.35;62.90;93800.47;5111500;28;20027;-63
2021/07/26 00:47:30;;;;;;;6.72;3.45;;;;;;;17.38;63.18;93791.69;5111835;28;20038;-63
2021/07/26 00:49:55;;;;;;;5.65;3.83;;;;;;;17.43;63.24;93799.03;5111438;28;20114;-63
2021/07/26 00:52:21;;;;;;;5.32;3.85;;;;;;;17.43;62.82;93784.34;5111650;28;20027;-63
2021/07/26 00:54:47;;;;;;;7.07;3.60;;;;;;;17.40;62.50;93782.72;5110555;28;20110;-63
2021/07/26 00:57:12;;;;;;;4.88;3.92;;;;;;;17.31;62.99;93769.47;5093125;28;20085;-61
2021/07/26 00:59:38;;;;;;;5.72;4.10;;;;;;;17.38;63.03;93774.94;5093193;28;20077;-65
2021/07/26 01:02:04;;;;;;;5.47;4.07;;;;;;;17.33;62.18;93778.00;5092862;28;20078;-65
2021/07/26 01:04:29;;;;;;;5.15;3.60;;;;;;;17.34;63.21;93779.50;5111497;28;20020;-65
2021/07/26 01:06:55;;;;;;;5.90;3.80;;;;;;;17.31;62.76;93770.22;5111140;28;20016;-65
2021/07/26 01:09:20;;;;;;;6.38;3.63;;;;;;;17.34;62.22;93762.75;5111097;28;20024;-64
2021/07/26 01:11:46;;;;;;;7.25;4.18;;;;;;;17.38;61.80;93763.03;5111348;28;20030;-65
2021/07/26 01:14:15;;;;;;;4.57;3.92;;;;;;;17.40;62.63;93774.34;5110918;28;20542;-65
2021/07/26 01:16:42;;;;;;;4.53;3.53;;;;;;;17.38;62.69;93783.31;5111097;28;20432;-66
2021/07/26 01:19:07;;;;;;;8.60;3.55;;;;;;;17.40;62.78;93788.31;5101268;28;20157;-65
2021/07/26 01:21:33;;;;;;;5.43;3.80;;;;;;;17.43;62.05;93798.31;5077031;28;20111;-65
2021/07/26 01:23:59;;;;;;;4.05;3.63;;;;;;;17.46;62.07;93791.53;5077393;28;20517;-63
2021/07/26 01:26:26;;;;;;;4.40;3.90;;;;;;;17.33;62.17;93801.06;5088245;28;20045;-63
2021/07/26 01:28:59;;;;;;;8.90;3.75;;;;;;;17.35;62.15;93800.47;5079483;28;20146;-62
2021/07/26 01:31:25;;;;;;;3.85;3.50;;;;;;;17.32;63.00;93807.25;5061174;28;20033;-62
2021/07/26 01:33:51;;;;;;;5.88;4.03;;;;;;;17.33;63.03;93801.06;5075957;28;20043;-59
2021/07/26 01:36:17;;;;;;;6.03;3.70;;;;;;;17.30;61.48;93810.59;5070491;28;20528;-59
2021/07/26 01:38:45;;;;;;;4.43;3.45;;;;;;;17.30;62.21;93802.22;5070432;28;20028;-58
2021/07/26 01:41:11;;;;;;;7.55;3.70;;;;;;;17.18;62.44;93795.75;5082839;28;20035;-59
2021/07/26 01:44:00;;;;;;;5.15;3.28;;;;;;;17.19;61.36;93802.81;5090277;28;20028;-58
2021/07/26 01:46:36;;;;;;;6.32;3.90;;;;;;;17.10;63.13;93783.25;5089843;28;20028;-59
2021/07/26 01:49:08;;;;;;;4.50;3.85;;;;;;;17.09;62.99;93784.56;5090587;28;20099;-58
2021/07/26 01:51:45;;;;;;;4.15;3.35;;;;;;;17.12;62.43;93775.03;5072550;28;20114;-65
2021/07/26 01:54:11;;;;;;;4.10;3.70;;;;;;;17.21;61.99;93774.31;5090417;28;20459;-60
2021/07/26 01:56:36;;;;;;;5.85;4.38;;;;;;;17.13;63.63;93770.94;5090394;28;20089;-60
2021/07/26 01:59:03;;;;;;;6.43;3.75;;;;;;;17.19;62.79;93766.53;5072106;28;20485;-55
2021/07/26 02:01:28;;;;;;;4.95;3.80;;;;;;;17.18;62.67;93769.91;5090102;28;20079;-53
2021/07/26 02:03:55;;;;;;;6.22;4.47;;;;;;;17.10;63.09;93775.63;5090389;28;20176;-60
2021/07/26 02:06:21;;;;;;;6.38;3.97;;;;;;;17.07;62.85;93776.03;5085847;28;20121;-59
2021/07/26 02:08:46;;;;;;;3.70;3.35;;;;;;;17.02;63.47;93783.38;5083031;28;20080;-59
2021/07/26 02:11:12;;;;;;;4.70;4.20;;;;;;;16.96;63.64;93793.34;5074157;28;20552;-62
2021/07/26 02:13:37;;;;;;;5.95;4.25;;;;;;;16.90;64.00;93795.66;5074066;28;20036;-60
2021/07/26 02:16:08;;;;;;;6.38;4.22;;;;;;;16.84;64.67;93801.53;5074071;28;20494;-60
2021/07/26 02:18:33;;;;;;;3.88;3.47;;;;;;;16.82;64.37;93800.63;5055884;28;20024;-60
2021/07/26 02:20:59;;;;;;;7.82;4.13;;;;;;;16.78;64.38;93794.75;5082035;28;20504;-60
2021/07/26 02:23:24;;;;;;;6.18;4.50;;;;;;;16.65;64.91;93807.03;5114324;28;20028;-60
2021/07/26 02:25:50;;;;;;;5.80;4.00;;;;;;;16.62;64.67;93808.19;5108855;28;20061;-60
2021/07/26 02:28:15;;;;;;;5.50;4.43;;;;;;;16.58;65.50;93825.34;5094111;28;20028;-60
2021/07/26 02:30:40;;;;;;;4.78;4.10;;;;;;;16.59;65.13;93835.16;5093821;28;20027;-59
2021/07/26 02:33:06;;;;;;;7.25;4.45;;;;;;;16.46;65.62;93838.28;5093625;28;20024;-59
2021/07/26 02:35:31;;;;;;;4.32;3.85;;;;;;;16.47;66.05;93836.25;5093963;28;20035;-59
2021/07/26 02:37:58;;;;;;;6.15;3.72;;;;;;;16.44;65.81;93843.72;5093968;28;20016;-57
2021/07/26 02:40:25;;;;;;;8.80;5.25;;;;;;;16.39;65.26;93830.78;5099662;28;20522;-58
2021/07/26 02:42:50;;;;;;;5.15;4.00;;;;;;;16.37;65.76;93832.69;5113901;28;20511;-58
2021/07/26 02:45:16;;;;;;;5.53;4.05;;;;;;;16.30;66.19;93837.03;5113852;28;20028;-58
2021/07/26 02:47:41;;;;;;;7.88;4.30;;;;;;;16.39;66.23;93833.56;5113814;28;20035;-59
2021/07/26 02:50:07;;;;;;;5.90;4.38;;;;;;;16.41;65.65;93847.66;5113835;28;20039;-62
2021/07/26 02:52:34;;;;;;;6.70;4.65;;;;;;;16.38;65.30;93845.28;5113943;28;20023;-65
2021/07/26 02:54:59;;;;;;;5.35;4.55;;;;;;;16.33;64.60;93847.00;5113979;28;20027;-65
2021/07/26 02:57:25;;;;;;;4.82;4.20;;;;;;;16.22;64.92;93850.31;5113497;28;20080;-65
2021/07/26 02:59:50;;;;;;;5.45;4.65;;;;;;;16.11;65.16;93861.97;5113534;28;20035;-65
2021/07/26 03:02:16;;;;;;;7.43;4.70;;;;;;;16.04;66.23;93860.00;5113489;28;20044;-65
2021/07/26 03:04:41;;;;;;;6.10;4.50;;;;;;;15.92;66.54;93859.75;5113481;28;20015;-65
2021/07/26 03:07:06;;;;;;;6.32;4.25;;;;;;;15.94;66.45;93842.47;5113773;28;20085;-65
2021/07/26 03:09:32;;;;;;;11.20;4.55;;;;;;;15.98;67.08;93845.59;5113692;28;20523;-65
2021/07/26 03:11:57;;;;;;;5.35;4.80;;;;;;;15.90;66.74;93844.94;5113314;28;20476;-65
2021/07/26 03:14:23;;;;;;;6.95;4.68;;;;;;;15.96;66.99;93845.41;5113259;28;20027;-65
2021/07/26 03:16:48;;;;;;;12.57;5.32;;;;;;;15.96;67.04;93850.28;5112591;28;20031;-62
2021/07/26 03:19:14;;;;;;;8.30;4.80;;;;;;;15.92;67.46;93847.88;5095905;28;20527;-67
2021/07/26 03:21:39;;;;;;;5.28;4.78;;;;;;;15.93;66.94;93843.81;5079611;28;20546;-67
2021/07/26 03:24:05;;;;;;;4.68;4.13;;;;;;;15.91;67.00;93849.94;5072509;28;20024;-64
2021/07/26 03:26:31;;;;;;;7.18;4.82;;;;;;;15.96;66.73;93855.84;5072688;28;20033;-62
2021/07/26 03:28:56;;;;;;;6.32;4.25;;;;;;;15.94;66.38;93854.34;5072743;28;20111;-62
2021/07/26 03:31:21;;;;;;;7.80;5.03;;;;;;;15.96;66.52;93856.56;5072377;28;20028;-62
2021/07/26 03:33:47;;;;;;;5.80;4.38;;;;;;;15.84;67.42;93853.56;5072512;28;20033;-62
2021/07/26 03:36:14;;;;;;;5.72;4.50;;;;;;;15.69;67.44;93839.78;5072264;28;20452;-67
2021/07/26 03:38:40;;;;;;;6.35;4.68;;;;;;;15.80;66.72;93847.66;5072499;28;20028;-67
2021/07/26 03:41:06;;;;;;;9.30;4.43;;;;;;;15.69;66.68;93850.19;5096359;28;20031;-63
2021/07/26 03:43:31;;;;;;;7.25;4.55;;;;;;;15.72;66.93;93862.97;5113051;28;20119;-65
2021/07/26 03:45:57;;;;;;;7.05;4.57;;;;;;;15.72;66.50;93865.75;5113017;28;20428;-64
2021/07/26 03:48:22;;;;;;;8.52;4.55;;;;;;;15.47;67.04;93851.16;5112547;28;20489;-66
2021/07/26 03:50:47;;;;;;;5.93;4.82;;;;;;;15.65;67.00;93867.31;5112566;28;20027;-65
2021/07/26 03:53:16;;;;;;;7.78;4.00;;;;;;;15.57;67.80;93874.25;5112845;28;20034;-66
2021/07/26 03:55:41;;;;;;;5.83;4.63;;;;;;;15.60;67.05;93857.16;5112826;28;20023;-66
2021/07/26 03:58:06;;;;;;;7.13;4.35;;;;;;;15.57;67.59;93858.28;5112453;28;20163;-64
2021/07/26 04:00:32;;;;;;;10.20;5.07;;;;;;;15.59;68.01;93858.44;5112381;28;20028;-66
2021/07/26 04:03:25;;;;;;;6.18;4.28;;;;;;;15.66;68.33;93870.81;5112168;28;20043;-66
2021/07/26 04:05:55;;;;;;;5.65;4.03;;;;;;;15.70;67.90;93865.59;5111956;28;20050;-66
2021/07/26 04:08:25;;;;;;;6.78;4.68;;;;;;;15.71;68.21;93861.50;5112617;28;20057;-66
2021/07/26 04:11:00;;;;;;;6.63;3.95;;;;;;;15.74;67.47;93863.13;5112468;28;20043;-66
2021/07/26 04:13:25;;;;;;;6.55;4.32;;;;;;;15.77;67.87;93870.31;5112185;28;20028;-66
2021/07/26 04:15:51;;;;;;;4.75;4.20;;;;;;;15.80;67.90;93869.19;5091627;28;20036;-63
2021/07/26 04:18:16;;;;;;;6.55;4.65;;;;;;;15.84;67.98;93869.50;5091653;28;20058;-63
2021/07/26 04:20:42;;;;;;;7.47;4.35;;;;;;;15.87;67.38;93866.31;5086219;28;20020;-63
2021/07/26 04:23:07;;;;;;;5.78;5.03;;;;;;;15.98;67.92;93875.50;5071651;28;20024;-63
2021/07/26 04:25:33;;;;;;;7.28;5.30;;;;;;;16.00;68.17;93878.44;5071563;28;20497;-63
2021/07/26 04:27:58;;;;;;;6.65;5.30;;;;;;;16.03;68.15;93875.25;5071566;28;20029;-63
2021/07/26 04:30:24;;;;;;;6.78;5.22;;;;;;;16.12;67.38;93874.59;5071522;28;20193;-64
2021/07/26 04:32:49;;;;;;;5.50;4.97;;;;;;;16.15;67.03;93879.00;5071107;28;20690;-63
2021/07/26 04:35:16;;;;;;;6.53;5.15;;;;;;;16.19;67.15;93886.94;5071495;28;20035;-63
2021/07/26 04:37:41;;;;;;;10.90;6.25;;;;;;;16.20;66.93;93880.78;5069633;28;20055;-63
2021/07/26 04:40:10;;;;;;;6.68;4.68;;;;;;;16.28;67.23;93881.47;5073644;28;20028;-63
2021/07/26 04:42:39;;;;;;;7.95;5.28;;;;;;;16.29;66.67;93880.13;5077691;28;20027;-63
2021/07/26 04:45:06;;;;;;;6.63;5.07;;;;;;;16.34;66.42;93872.84;5082986;28;20489;-63
2021/07/26 04:47:32;;;;;;;8.35;5.60;;;;;;;16.39;66.55;93871.84;5089327;28;20462;-62
2021/07/26 04:49:57;;;;;;;10.10;7.75;;;;;;;16.42;66.70;93879.78;5078620;28;20024;-63
2021/07/26 04:52:23;;;;;;;15.18;12.10;;;;;;;16.55;67.37;93882.25;5071117;28;20028;-66
2021/07/26 04:54:48;;;;;;;37.78;27.05;;;;;;;16.60;67.25;93881.25;5077688;28;20417;-66
2021/07/26 04:57:14;;;;;;;31.27;24.38;;;;;;;16.62;67.23;93886.97;5091304;28;20024;-59
2021/07/26 04:59:39;;;;;;;89.93;27.83;;;;;;;16.69;68.01;93882.63;5090912;28;20032;-62
2021/07/26 05:02:05;;;;;;;36.47;19.58;;;;;;;16.76;66.72;93894.97;5090718;28;20055;-64
2021/07/26 05:04:30;;;;;;;32.85;20.27;;;;;;;16.80;66.67;93900.88;5091109;28;20032;-60
2021/07/26 05:07:02;;;;;;;37.78;21.00;;;;;;;16.88;67.11;93896.66;5101741;28;20028;-61
2021/07/26 05:09:29;;;;;;;30.17;19.00;;;;;;;16.89;66.90;93900.91;5111449;28;20027;-62
2021/07/26 05:12:00;;;;;;;29.58;16.83;;;;;;;16.95;67.26;93892.28;5092283;28;20036;-61
2021/07/26 05:14:25;;;;;;;14.45;10.68;;;;;;;16.93;66.69;93897.72;5091056;28;20028;-61
2021/07/26 05:16:51;;;;;;;9.23;7.32;;;;;;;16.97;66.86;93890.41;5090863;28;20089;-64
2021/07/26 05:19:16;;;;;;;10.57;7.53;;;;;;;17.13;67.25;93902.06;5090915;28;20043;-63
2021/07/26 05:21:42;;;;;;;9.73;5.90;;;;;;;17.16;67.23;93898.09;5077012;28;20414;-65
2021/07/26 05:24:07;;;;;;;5.38;4.28;;;;;;;17.19;65.59;93897.69;5070550;28;20021;-63
2021/07/26 05:26:33;;;;;;;13.00;4.63;;;;;;;17.26;65.47;93901.69;5070236;28;20123;-64
2021/07/26 05:28:58;;;;;;;10.18;4.38;;;;;;;17.34;66.11;93896.72;5070496;28;20033;-65
2021/07/26 05:31:24;;;;;;;7.35;4.43;;;;;;;17.45;65.50;93896.88;5070147;28;20086;-64
2021/07/26 05:33:49;;;;;;;5.60;3.95;;;;;;;17.56;65.70;93901.22;5072536;28;20081;-65
2021/07/26 05:36:14;;;;;;;6.13;4.30;;;;;;;17.69;66.03;93903.59;5084855;28;20069;-59
2021/07/26 05:38:40;;;;;;;4.75;3.78;;;;;;;17.73;65.67;93900.38;5090669;28;20038;-62
2021/07/26 05:41:07;;;;;;;7.35;4.07;;;;;;;17.87;66.28;93901.41;5102080;28;20028;-58
2021/07/26 05:43:32;;;;;;;5.45;3.95;;;;;;;17.93;65.68;93905.38;5073060;28;20463;-61
2021/07/26 05:45:58;;;;;;;4.47;3.70;;;;;;;18.07;65.45;93900.13;5090482;28;20078;-61
2021/07/26 05:48:23;;;;;;;7.32;3.97;;;;;;;18.20;65.14;93896.88;5090483;28;20477;-62
2021/07/26 05:50:49;;;;;;;4.05;3.75;;;;;;;18.30;64.15;93894.81;5090215;28;20042;-61
2021/07/26 05:53:14;;;;;;;5.82;3.67;;;;;;;18.41;63.17;93901.91;5081117;28;20028;-61
2021/07/26 05:55:40;;;;;;;8.27;3.40;;;;;;;18.58;61.94;93910.16;5078664;28;20107;-60
2021/07/26 05:58:05;;;;;;;6.65;3.60;;;;;;;18.64;61.88;93902.19;5077441;28;20033;-64
2021/07/26 06:00:57;;;;;;;5.93;3.67;;;;;;;18.65;62.55;93900.84;5077194;28;20016;-61
2021/07/26 06:03:22;;;;;;;4.10;3.65;;;;;;;18.70;63.11;93905.41;5079045;28;20527;-60
2021/07/26 06:05:48;;;;;;;7.05;4.00;;;;;;;18.79;61.54;93896.25;5079836;28;20055;-60
2021/07/26 06:08:13;;;;;;;6.07;3.72;;;;;;;18.82;62.33;93900.66;5083293;28;20433;-60
2021/07/26 06:10:38;;;;;;;5.75;3.38;;;;;;;18.87;61.85;93905.22;5080749;28;20532;-60
2021/07/26 06:13:05;;;;;;;7.28;4.20;;;;;;;18.91;62.13;93905.50;5079099;28;20402;-61
2021/07/26 06:15:30;;;;;;;10.35;4.45;;;;;;;19.06;62.20;93891.16;5087386;28;20092;-60
2021/07/26 06:17:56;;;;;;;7.60;3.85;;;;;;;19.22;63.48;93897.91;5090214;28;20500;-61
2021/07/26 06:20:21;;;;;;;5.63;3.88;;;;;;;19.30;62.57;93892.13;5087712;28;20443;-60
2021/07/26 06:22:47;;;;;;;8.32;4.15;;;;;;;19.37;61.81;93885.63;5069814;28;20051;-61
2021/07/26 06:25:12;;;;;;;4.55;3.55;;;;;;;19.46;61.98;93894.00;5070001;28;20025;-60
2021/07/26 06:27:42;;;;;;;4.10;3.70;;;;;;;19.60;61.44;93885.81;5069928;28;20029;-61
2021/07/26 06:30:07;;;;;;;4.55;3.72;;;;;;;19.70;61.10;93894.16;5069996;28;20039;-60
2021/07/26 06:32:35;;;;;;;5.50;3.58;;;;;;;19.89;61.05;93886.38;5069933;28;20021;-61
2021/07/26 06:35:01;;;;;;;6.00;3.72;;;;;;;20.02;60.09;93888.66;5069562;28;20494;-61
2021/07/26 06:37:26;;;;;;;8.20;4.25;;;;;;;20.14;59.59;93885.91;5067351;28;20154;-60
2021/07/26 06:39:52;;;;;;;12.35;7.65;;;;;;;20.10;59.82;93866.00;5070828;28;20059;-60
2021/07/26 06:42:18;;;;;;;7.97;5.68;;;;;;;20.31;58.41;93896.88;5089654;28;20063;-58
2021/07/26 06:44:44;;;;;;;9.63;5.90;;;;;;;20.38;59.06;93887.50;5085581;28;20051;-59
2021/07/26 06:47:10;;;;;;;10.07;5.22;;;;;;;20.57;57.97;93889.44;5087162;28;20178;-63
2021/07/26 06:49:35;;;;;;;7.90;5.43;;;;;;;20.67;58.26;93890.81;5067398;28;20406;-65
2021/07/26 06:52:02;;;;;;;8.55;5.55;;;;;;;20.61;58.43;93882.00;5068134;28;20085;-66
2021/07/26 06:54:28;;;;;;;6.25;4.82;;;;;;;20.74;58.12;93887.06;5072185;28;20070;-66
2021/07/26 06:56:53;;;;;;;6.35;4.18;;;;;;;20.80;58.27;93886.69;5072322;28;20075;-63
2021/07/26 06:59:19;;;;;;;7.00;3.60;;;;;;;21.03;58.00;93892.38;5072814;28;20032;-67
2021/07/26 07:01:45;;;;;;;5.75;3.75;;;;;;;21.15;56.49;93890.34;5068807;28;20121;-67
2021/07/26 07:04:10;;;;;;;4.80;3.50;;;;;;;21.27;56.40;93887.56;5069282;28;20028;-65
2021/07/26 07:06:36;;;;;;;15.75;4.03;;;;;;;21.28;56.33;93881.31;5069483;28;20020;-65
2021/07/26 07:09:01;;;;;;;4.05;3.20;;;;;;;21.43;57.25;93877.28;5069547;28;20413;-67
2021/07/26 07:11:26;;;;;;;62.35;6.15;;;;;;;21.52;56.52;93870.81;5070650;28;20028;-65
2021/07/26 07:13:54;;;;;;;18.98;3.92;;;;;;;21.56;56.16;93857.75;5090128;28;20024;-68
2021/07/26 07:16:21;;;;;;;4.70;3.13;;;;;;;21.77;55.03;93866.03;5091618;28;20565;-64
2021/07/26 07:18:51;;;;;;;4.63;2.85;;;;;;;21.87;53.02;93857.50;5091509;28;20027;-63
2021/07/26 07:21:17;;;;;;;6.32;2.72;;;;;;;22.27;51.74;93875.97;5081444;28;20024;-63
2021/07/26 07:23:43;;;;;;;12.55;3.08;;;;;;;22.43;52.86;93872.00;5071303;28;20075;-67
2021/07/26 07:26:09;;;;;;;4.22;2.65;;;;;;;22.57;50.57;93872.06;5069946;28;20021;-66
2021/07/26 07:28:34;;;;;;;3.55;2.53;;;;;;;22.60;49.74;93865.97;5071331;28;20094;-64
2021/07/26 07:31:00;;;;;;;5.70;2.28;;;;;;;22.82;48.16;93862.91;5071299;28;20571;-66
2021/07/26 07:33:25;;;;;;;3.10;2.40;;;;;;;22.93;49.87;93865.69;5071082;28;20703;-69
2021/07/26 07:35:51;;;;;;;2.80;2.40;;;;;;;23.14;48.93;93871.06;5070046;28;20198;-68
2021/07/26 07:38:16;;;;;;;3.70;2.42;;;;;;;23.30;49.03;93866.28;5070821;28;20024;-64
2021/07/26 07:40:42;;;;;;;4.20;2.70;;;;;;;23.60;48.94;93872.84;5077195;28;20091;-63
2021/07/26 07:43:07;;;;;;;10.82;2.40;;;;;;;23.99;47.91;93872.72;5070974;28;20021;-63
2021/07/26 07:45:33;;;;;;;5.05;3.03;;;;;;;24.36;47.44;93869.69;5070960;28;20024;-68
2021/07/26 07:47:59;;;;;;;6.90;2.78;;;;;;;24.67;46.62;93867.69;5070863;28;20085;-67
2021/07/26 07:50:24;;;;;;;4.30;2.28;;;;;;;25.05;43.30;93866.00;5052870;28;20017;-69
2021/07/26 07:52:50;;;;;;;4.35;2.05;;;;;;;25.23;41.50;93866.84;5070752;28;20028;-66
2021/07/26 07:55:16;;;;;;;4.07;3.08;;;;;;;25.55;42.28;93862.69;5070625;28;20032;-67
2021/07/26 07:57:41;;;;;;;5.30;3.80;;;;;;;25.88;41.10;93864.13;5069100;28;20051;-67
2021/07/26 08:00:12;;;;;;;4.97;3.05;;;;;;;26.21;39.26;93867.00;5070793;28;20047;-68
2021/07/26 08:02:38;;;;;;;54.67;5.95;;;;;;;26.60;39.80;93864.41;5077330;28;20043;-59
2021/07/26 08:05:03;;;;;;;9.40;2.53;;;;;;;27.09;38.60;93858.63;5111366;28;20382;-63
2021/07/26 08:07:29;;;;;;;4.18;2.67;;;;;;;27.69;38.70;93849.59;5111069;28;20807;-62
2021/07/26 08:09:54;;;;;;;3.30;2.50;;;;;;;27.59;36.07;93854.88;5111196;28;20488;-70
2021/07/26 08:12:21;;;;;;;3.67;2.58;;;;;;;27.41;37.79;93848.53;5110990;28;20031;-67
2021/07/26 08:14:46;;;;;;;4.75;2.45;;;;;;;28.12;36.97;93854.72;5110857;28;20038;-66
2021/07/26 08:17:12;;;;;;;4.07;2.58;;;;;;;28.85;34.13;93854.34;5110715;28;20447;-66
2021/07/26 08:19:37;;;;;;;3.25;2.70;;;;;;;29.46;33.03;93852.03;5110690;28;20462;-69
2021/07/26 08:22:04;;;;;;;3.10;2.80;;;;;;;29.90;31.92;93855.47;5094091;28;20401;-68
2021/07/26 08:24:29;;;;;;;2.88;2.55;;;;;;;30.50;30.21;93857.16;5090359;28;20229;-68
2021/07/26 08:26:55;;;;;;;5.15;2.50;;;;;;;30.53;31.70;93858.66;5090404;28;20034;-66
2021/07/26 08:29:20;;;;;;;9.60;2.58;;;;;;;30.71;31.11;93855.53;5077505;28;20410;-62
2021/07/26 08:31:46;;;;;;;5.03;2.55;;;;;;;31.76;29.30;93850.22;5080020;28;20550;-69
2021/07/26 08:34:11;;;;;;;2.70;2.15;;;;;;;32.60;28.01;93833.31;5078420;28;20033;-65
2021/07/26 08:36:37;;;;;;;4.47;2.72;;;;;;;33.69;27.22;93844.38;5077869;28;20020;-65
2021/07/26 08:39:03;;;;;;;5.10;2.00;;;;;;;34.58;25.56;93837.63;5079591;28;20070;-67
2021/07/26 08:41:28;;;;;;;2.97;2.35;;;;;;;35.40;24.93;93840.50;5080084;28;20035;-67
2021/07/26 08:43:53;;;;;;;3.65;2.15;;;;;;;36.10;23.28;93848.13;5060875;28;20032;-67
2021/07/26 08:46:20;;;;;;;3.65;2.00;;;;;;;36.21;22.84;93841.00;5077722;28;20020;-67
2021/07/26 08:48:50;;;;;;;3.67;2.80;;;;;;;36.56;21.90;93839.69;5077792;28;20387;-65
2021/07/26 08:51:18;;;;;;;2.92;2.40;;;;;;;37.13;22.05;93826.09;5077411;28;20417;-65
2021/07/26 08:53:44;;;;;;;3.00;2.10;;;;;;;37.73;21.07;93833.97;5076725;28;20726;-65
2021/07/26 08:56:10;;;;;;;3.30;2.10;;;;;;;38.08;20.54;93838.22;5059036;28;20051;-63
2021/07/26 08:58:36;;;;;;;3.45;2.17;;;;;;;37.23;21.70;93838.34;5080418;28;20637;-62
2021/07/26 09:01:01;;;;;;;3.30;2.30;;;;;;;37.14;21.68;93833.31;5071640;28;20071;-63
2021/07/26 09:03:27;;;;;;;2.45;2.10;;;;;;;37.25;20.77;93826.13;5068138;28;20032;-62
2021/07/26 09:05:52;;;;;;;4.60;2.20;;;;;;;36.42;21.82;93833.88;5067862;28;20029;-63
2021/07/26 09:08:18;;;;;;;3.70;2.50;;;;;;;35.05;23.85;93835.91;5067447;28;20024;-60
2021/07/26 09:10:44;;;;;;;2.53;2.30;;;;;;;34.10;24.21;93834.91;5067567;28;20075;-63
2021/07/26 09:13:12;;;;;;;2.95;2.67;;;;;;;33.72;26.02;93833.69;5068575;28;20034;-65
2021/07/26 09:15:37;;;;;;;4.73;2.30;;;;;;;33.34;24.87;93837.41;5068397;28;20024;-63
2021/07/26 09:18:05;;;;;;;3.47;2.38;;;;;;;33.39;25.51;93838.22;5069210;28;20025;-63
2021/07/26 09:20:33;;;;;;;3.75;2.55;;;;;;;33.69;24.95;93835.06;5069201;28;20032;-63
2021/07/26 09:23:10;;;;;;;5.72;2.60;;;;;;;34.01;25.76;93830.50;5069329;28;20036;-67
2021/07/26 09:25:35;;;;;;;3.03;2.72;;;;;;;34.64;26.28;93828.34;5069071;28;20024;-64
2021/07/26 09:28:07;;;;;;;4.00;2.30;;;;;;;35.13;23.90;93830.25;5068029;28;20087;-65
2021/07/26 09:30:38;;;;;;;4.18;2.47;;;;;;;35.51;23.92;93827.69;5069196;28;20036;-67
2021/07/26 09:33:34;;;;;;;2.40;2.15;;;;;;;35.41;24.42;93824.69;5068710;28;20025;-67
2021/07/26 09:36:21;;;;;;;4.40;2.65;;;;;;;36.13;23.38;93832.31;5068318;28;20040;-64
2021/07/26 09:38:46;;;;;;;6.93;2.60;;;;;;;36.29;22.66;93824.50;5069725;28;20028;-65
2021/07/26 09:41:12;;;;;;;4.43;2.40;;;;;;;35.95;23.73;93826.47;5094793;28;20568;-62
2021/07/26 09:43:38;;;;;;;4.88;2.67;;;;;;;35.08;24.46;93825.19;5091052;28;20024;-62
2021/07/26 09:46:04;;;;;;;2.88;2.55;;;;;;;34.92;24.05;93806.38;5109133;28;20102;-61
2021/07/26 09:48:32;;;;;;;3.50;2.70;;;;;;;35.71;24.45;93827.09;5103791;28;20111;-63
2021/07/26 09:51:00;;;;;;;3.05;2.25;;;;;;;35.70;22.96;93832.09;5089116;28;20031;-63
2021/07/26 09:53:26;;;;;;;2.60;2.40;;;;;;;36.38;22.66;93825.97;5088745;28;20036;-63
2021/07/26 09:55:57;;;;;;;4.97;2.53;;;;;;;37.17;23.45;93826.09;5098188;28;20470;-63
2021/07/26 09:58:42;;;;;;;8.20;3.35;;;;;;;36.85;21.95;93823.19;5109224;28;20412;-63
2021/07/26 10:01:09;;;;;;;3.38;2.50;;;;;;;36.63;23.09;93826.03;5108949;28;20198;-62
2021/07/26 10:03:38;;;;;;;4.10;2.85;;;;;;;36.16;24.14;93833.78;5108926;28;20026;-61
2021/07/26 10:06:04;;;;;;;6.30;3.25;;;;;;;36.39;24.11;93832.41;5109093;28;20031;-62
2021/07/26 10:08:30;;;;;;;6.00;2.90;;;;;;;36.78;22.91;93836.13;5109222;28;20076;-63
2021/07/26 10:10:56;;;;;;;4.82;3.17;;;;;;;36.92;23.11;93818.91;5090799;28;20039;-62
2021/07/26 10:13:22;;;;;;;4.55;3.13;;;;;;;36.36;23.98;93819.47;5108849;28;20028;-62
2021/07/26 10:15:48;;;;;;;2.90;2.65;;;;;;;35.53;25.12;93830.56;5109157;28;20030;-61
2021/07/26 10:18:14;;;;;;;6.25;2.83;;;;;;;35.35;24.05;93821.78;5109123;28;20035;-62
2021/07/26 10:20:41;;;;;;;3.30;3.00;;;;;;;34.84;24.95;93817.06;5108217;28;20476;-60
2021/07/26 10:23:14;;;;;;;6.05;3.08;;;;;;;35.09;24.88;93821.59;5090419;28;20023;-62
2021/07/26 10:26:09;;;;;;;4.55;3.72;;;;;;;36.25;24.58;93824.47;5109149;28;20047;-61
2021/07/26 10:28:54;;;;;;;4.07;3.42;;;;;;;36.29;23.06;93818.00;5113036;28;20046;-65
2021/07/26 10:31:30;;;;;;;3.40;3.05;;;;;;;35.95;23.55;93814.97;5094929;28;20030;-65
2021/07/26 10:34:14;;;;;;;3.22;2.90;;;;;;;36.21;23.79;93818.00;5112430;28;20031;-62
2021/07/26 10:36:40;;;;;;;5.72;3.28;;;;;;;36.47;22.65;93826.72;5112951;28;20263;-65
2021/07/26 10:39:28;;;;;;;5.07;2.90;;;;;;;37.51;22.90;93820.34;5112486;28;20424;-60
2021/07/26 10:41:55;;;;;;;;;;;;;;;37.79;22.23;93820.28;5112987;28;20035;-61
2021/07/26 10:44:20;;;;;;;4.63;3.08;;;;;;;38.25;21.67;93815.88;5112627;28;19916;-61
2021/07/26 10:49:35;;;;;;;3.42;2.95;;;;;;;37.53;21.26;93825.38;5099286;28;20032;-64
2021/07/26 10:52:01;;;;;;;3.80;2.97;;;;;;;37.59;22.42;93816.72;5101119;28;20104;-60
2021/07/26 10:54:34;;;;;;;3.35;2.88;;;;;;;38.63;21.60;93818.53;5112373;28;20492;-60
2021/07/26 10:56:59;;;;;;;4.00;2.88;;;;;;;38.24;22.50;93817.28;5112107;28;20515;-59
2021/07/26 10:59:25;;;;;;;4.45;2.78;;;;;;;37.34;22.01;93818.88;5112369;28;20110;-61
2021/07/26 11:01:56;;;;;;;7.88;2.97;;;;;;;38.28;21.56;93818.00;5112050;28;20566;-62
2021/07/26 11:04:31;;;;;;;4.35;3.22;;;;;;;38.52;21.54;93815.00;5112426;28;20098;-64
2021/07/26 11:06:58;;;;;;;5.25;3.30;;;;;;;39.19;20.82;93826.84;5112088;28;20035;-65
2021/07/26 11:09:24;;;;;;;3.80;2.70;;;;;;;39.84;20.34;93821.22;5111228;28;20084;-60
2021/07/26 11:11:52;;;;;;;3.35;3.05;;;;;;;40.18;20.27;93813.63;5111472;28;20039;-63
2021/07/26 11:14:18;;;;;;;3.03;2.73;;;;;;;40.32;18.49;93811.28;5111891;28;20031;-62
2021/07/26 11:16:55;;;;;;;2.75;2.55;;;;;;;39.74;18.05;93806.16;5112016;28;20035;-60
2021/07/26 11:19:46;;;;;;;3.33;2.58;;;;;;;40.13;19.63;93810.75;5111799;28;20047;-68
2021/07/26 11:22:15;;;;;;;5.60;3.17;;;;;;;40.36;18.45;93804.69;5111676;28;20027;-64
2021/07/26 11:24:41;;;;;;;3.50;2.80;;;;;;;39.50;18.77;93791.91;5111527;28;20035;-63
2021/07/26 11:27:13;;;;;;;3.45;3.10;;;;;;;39.77;19.88;93807.53;5111518;28;20037;-69
2021/07/26 11:29:42;;;;;;;3.33;3.00;;;;;;;39.74;18.88;93806.16;5111815;28;20030;-68
2021/07/26 11:32:09;;;;;;;3.75;2.90;;;;;;;39.74;19.44;93803.25;5111364;28;20496;-62
2021/07/26 11:34:34;;;;;;;3.50;3.20;;;;;;;39.80;19.36;93806.78;5111641;28;20118;-65